Portada
METAR-TAF:

METAR-TAF

Aeroports :

Txità, Rússia

latitud: 52-05N, longitud: 113-29E, altitud: 685 m

Observació

L'informe es va fer fa 13 minuts, a les 09:30 UTC
Vent 14 kt del Oest
Temperatura 9°C
Humitat 27%
Pressió 1013 hPa
Visibilitat 10 km o més

METAR: UIAA 150930Z 26007MPS 9999 NSC 09/M09 Q1013 R29/CLRD70 NOSIG RMK QFE701/0935

Hora: 18:43 (09:43 UTC)

Pronòstic

L'informe es va fer fa 1 hora i 43 minuts, a les 08:00 UTC
Pronòstic vàlid del 15 a les 09 UTC al 16 a les 09 UTC
Vent 10 kt del Oest amb ràfegues de 23 kt
Visibilitat 10 km o més
Núvols disperses a una alçada de 4000 ft, Cumulonimbus.
Temporalment
l' 15 a les 09 UTC al 16 a les 09 UTC
Vent 6 kt del Sud/Sud-Oest

TAF: UIAA 150800Z 1509/1609 27005G12MPS 9999 SCT040CB TEMPO 1509/1609 21003MPS

Observacions i pronòstics meteorològics de més de 4000 aeroports (METAR i TAF).

Les estacions disponibles són els punts grocs i vermells al mapa.

Posi el ratolí al punt desitjat per veure el nom de l'estació.

Feu clic per veure les observacions i els pronòstics meteorològics.

Per canviar el mapa: feu clic els botons verds amb una creu de color negre per apropar; al botó verd amb un guió per allunyar la imatge; o en les fletxes verdes per a mapes adjacents.


METAR-TAF: